Time;durP1;ratioP1;P1;durP2;ratioP2;P2;SDS_P1;SDS_P2;PMS_P1;PMS_P2;Temp;Humidity;BMP_temperature;BMP_pressure;BME280_temperature;BME280_humidity;BME280_pressure;Samples;Min_cycle;Max_cycle;Signal;HPM_P1;HPM_P2
2022/12/08 00:02:14;;;;;;;39.30;24.08;;;;;;;;;;6221175;28;20065;-75
2022/12/08 00:11:56;;;;;;;39.97;22.48;;;;;;;;;;6220295;28;20061;-77
2022/12/08 00:14:58;;;;;;;38.25;21.35;;;;;;;;;;6220167;28;20817;-74
2022/12/08 00:18:01;;;;;;;36.97;21.52;;;;;;;;;;6222182;28;20120;-76
2022/12/08 00:21:03;;;;;;;33.53;20.52;;;;;;;;;;6222198;28;20155;-76
2022/12/08 00:24:05;;;;;;;38.03;22.13;;;;;;;;;;6222105;28;20061;-76
2022/12/08 00:27:10;;;;;;;36.13;21.92;;;;;;;;;;6219263;28;20058;-77
2022/12/08 00:30:12;;;;;;;85.05;41.55;;;;;;;;;;6223766;28;20093;-76
2022/12/08 00:33:15;;;;;;;184.02;87.30;;;;;;;;;;6220701;28;20057;-76
2022/12/08 00:36:17;;;;;;;85.05;43.08;;;;;;;;;;6220595;28;20061;-74
2022/12/08 00:39:18;;;;;;;83.70;45.63;;;;;;;;;;6222020;28;20053;-75
2022/12/08 00:42:20;;;;;;;71.80;36.83;;;;;;;;;;6223801;28;20100;-76
2022/12/08 00:45:22;;;;;;;83.40;41.15;;;;;;;;;;6225679;28;20281;-73
2022/12/08 00:48:25;;;;;;;73.20;39.03;;;;;;;;;;6228430;28;20061;-74
2022/12/08 00:51:27;;;;;;;40.75;23.45;;;;;;;;;;6228049;28;20062;-76
2022/12/08 00:54:28;;;;;;;31.10;20.00;;;;;;;;;;6226602;28;20057;-74
2022/12/08 00:57:30;;;;;;;35.67;20.48;;;;;;;;;;6226827;28;20046;-76
2022/12/08 01:00:32;;;;;;;30.70;20.23;;;;;;;;;;6227087;28;20124;-74
2022/12/08 01:03:35;;;;;;;30.40;19.77;;;;;;;;;;6226114;28;20116;-74
2022/12/08 01:06:37;;;;;;;30.60;19.48;;;;;;;;;;6227663;28;20050;-75
2022/12/08 01:09:39;;;;;;;31.83;20.05;;;;;;;;;;6226602;28;20345;-76
2022/12/08 01:12:40;;;;;;;32.63;20.00;;;;;;;;;;6226148;28;20574;-74
2022/12/08 01:15:42;;;;;;;31.38;20.02;;;;;;;;;;6223170;28;20054;-77
2022/12/08 01:18:45;;;;;;;31.88;19.55;;;;;;;;;;6228735;28;20049;-77
2022/12/08 01:21:47;;;;;;;40.97;19.73;;;;;;;;;;6223266;28;20127;-73
2022/12/08 01:24:49;;;;;;;30.50;20.13;;;;;;;;;;6225356;28;20340;-74
2022/12/08 01:27:52;;;;;;;31.15;19.38;;;;;;;;;;6224495;28;20046;-76
2022/12/08 01:30:53;;;;;;;32.70;19.85;;;;;;;;;;6224144;28;20289;-75
2022/12/08 01:33:57;;;;;;;36.00;22.25;;;;;;;;;;6226888;28;20057;-76
2022/12/08 01:36:59;;;;;;;38.90;22.55;;;;;;;;;;6225023;28;20124;-74
2022/12/08 01:40:00;;;;;;;40.28;22.77;;;;;;;;;;6226207;28;20053;-75
2022/12/08 01:43:02;;;;;;;39.20;24.30;;;;;;;;;;6224763;28;20054;-76
2022/12/08 01:46:04;;;;;;;44.88;25.20;;;;;;;;;;6226485;28;21440;-76
2022/12/08 01:49:09;;;;;;;41.15;24.60;;;;;;;;;;6225540;28;20066;-75
2022/12/08 01:52:13;;;;;;;46.65;26.15;;;;;;;;;;6222064;28;20431;-75
2022/12/08 01:55:15;;;;;;;;;;;;;;;;;;6226435;28;20152;-76
2022/12/08 01:58:21;;;;;;;47.42;25.20;;;;;;;;;;6227007;28;20105;-75
2022/12/08 02:01:23;;;;;;;47.42;27.13;;;;;;;;;;6227111;28;20072;-75
2022/12/08 02:04:26;;;;;;;46.92;25.75;;;;;;;;;;6224511;28;20053;-76
2022/12/08 02:07:28;;;;;;;51.17;26.90;;;;;;;;;;6222317;28;20097;-75
2022/12/08 02:10:32;;;;;;;48.45;25.42;;;;;;;;;;6226656;28;20296;-75
2022/12/08 02:13:34;;;;;;;54.25;26.80;;;;;;;;;;6223890;28;20058;-75
2022/12/08 02:16:43;;;;;;;48.00;25.25;;;;;;;;;;6225939;28;20329;-74
2022/12/08 02:20:05;;;;;;;45.30;25.45;;;;;;;;;;6225594;28;20057;-75
2022/12/08 02:23:16;;;;;;;46.90;25.75;;;;;;;;;;6225401;28;20049;-75
2022/12/08 02:26:35;;;;;;;42.20;23.73;;;;;;;;;;6221752;28;20226;-75
2022/12/08 02:29:52;;;;;;;41.70;24.80;;;;;;;;;;6223999;28;20160;-75
2022/12/08 02:33:27;;;;;;;44.60;25.08;;;;;;;;;;6226126;28;20054;-75
2022/12/08 02:36:31;;;;;;;;;;;;;;;;;;6226036;28;20065;-76
2022/12/08 02:39:37;;;;;;;44.80;24.65;;;;;;;;;;6223025;28;19932;-75
2022/12/08 02:42:43;;;;;;;44.83;24.70;;;;;;;;;;6223411;28;20057;-75
2022/12/08 02:45:48;;;;;;;49.05;25.63;;;;;;;;;;6223401;28;20068;-75
2022/12/08 02:48:51;;;;;;;47.30;25.13;;;;;;;;;;6227720;28;20224;-73
2022/12/08 02:52:04;;;;;;;45.47;24.10;;;;;;;;;;6222556;28;20087;-75
2022/12/08 02:55:10;;;;;;;44.35;24.95;;;;;;;;;;6225273;28;20342;-75
2022/12/08 02:58:42;;;;;;;43.03;24.73;;;;;;;;;;6219561;28;20050;-75
2022/12/08 03:01:56;;;;;;;41.00;24.42;;;;;;;;;;6226084;28;20100;-73
2022/12/08 03:05:02;;;;;;;45.83;24.57;;;;;;;;;;6223055;28;20065;-75
2022/12/08 03:08:09;;;;;;;43.38;24.38;;;;;;;;;;6223884;28;20056;-75
2022/12/08 03:11:13;;;;;;;39.72;23.25;;;;;;;;;;6222027;28;20053;-75
2022/12/08 03:14:16;;;;;;;;;;;;;;;;;;6222645;28;20084;-75
2022/12/08 03:17:20;;;;;;;39.53;22.13;;;;;;;;;;6224930;28;20185;-75
2022/12/08 03:20:23;;;;;;;39.85;22.65;;;;;;;;;;6222590;28;20121;-74
2022/12/08 03:23:27;;;;;;;37.08;22.35;;;;;;;;;;6223675;28;20057;-75
2022/12/08 03:26:31;;;;;;;33.13;20.70;;;;;;;;;;6223422;28;20045;-74
2022/12/08 03:29:33;;;;;;;34.97;20.77;;;;;;;;;;6222868;28;20054;-75
2022/12/08 03:32:39;;;;;;;33.72;20.27;;;;;;;;;;6224710;28;20046;-75
2022/12/08 03:35:41;;;;;;;33.65;20.45;;;;;;;;;;6221760;28;20046;-75
2022/12/08 03:38:45;;;;;;;31.55;21.00;;;;;;;;;;6220723;28;20053;-75
2022/12/08 03:41:47;;;;;;;31.42;21.08;;;;;;;;;;6221562;28;20123;-75
2022/12/08 03:44:49;;;;;;;31.80;20.17;;;;;;;;;;6223816;28;20045;-75
2022/12/08 03:47:51;;;;;;;31.48;19.77;;;;;;;;;;6219743;28;20054;-75
2022/12/08 03:50:52;;;;;;;30.65;18.75;;;;;;;;;;6222907;28;20057;-75
2022/12/08 03:53:55;;;;;;;31.10;20.00;;;;;;;;;;6223437;28;20064;-75
2022/12/08 03:56:57;;;;;;;30.20;19.60;;;;;;;;;;6222241;28;20045;-75
2022/12/08 03:59:58;;;;;;;34.92;19.92;;;;;;;;;;6220639;28;20062;-75
2022/12/08 04:03:00;;;;;;;35.85;21.45;;;;;;;;;;6224276;28;20088;-74
2022/12/08 04:06:02;;;;;;;35.25;22.15;;;;;;;;;;6222602;28;20080;-76
2022/12/08 04:09:05;;;;;;;36.72;20.98;;;;;;;;;;6223968;28;20330;-75
2022/12/08 04:12:07;;;;;;;35.92;21.30;;;;;;;;;;6221776;28;20269;-75
2022/12/08 04:15:10;;;;;;;35.03;21.02;;;;;;;;;;6222434;28;20062;-75
2022/12/08 04:18:12;;;;;;;38.42;21.20;;;;;;;;;;6219541;28;20419;-75
2022/12/08 04:21:14;;;;;;;29.20;18.63;;;;;;;;;;6221414;28;20428;-75
2022/12/08 04:24:17;;;;;;;33.50;21.25;;;;;;;;;;6221090;28;20270;-75
2022/12/08 04:27:18;;;;;;;34.45;20.95;;;;;;;;;;6220745;28;20081;-74
2022/12/08 04:30:20;;;;;;;33.40;19.70;;;;;;;;;;6224021;28;20772;-75
2022/12/08 04:33:22;;;;;;;33.55;20.90;;;;;;;;;;6224582;28;20050;-75
2022/12/08 04:36:23;;;;;;;32.60;21.05;;;;;;;;;;6224050;28;20050;-75
2022/12/08 04:39:27;;;;;;;32.42;19.20;;;;;;;;;;6223998;28;20058;-74
2022/12/08 04:42:28;;;;;;;37.83;20.42;;;;;;;;;;6220757;28;20042;-72
2022/12/08 04:45:30;;;;;;;40.15;22.25;;;;;;;;;;6222002;28;20049;-73
2022/12/08 04:48:32;;;;;;;40.15;21.75;;;;;;;;;;6220982;28;20054;-74
2022/12/08 04:51:33;;;;;;;39.38;21.67;;;;;;;;;;6220867;28;20054;-73
2022/12/08 04:54:37;;;;;;;39.85;21.98;;;;;;;;;;6220502;28;20057;-75
2022/12/08 04:57:38;;;;;;;40.35;21.30;;;;;;;;;;6222796;28;20416;-72
2022/12/08 05:00:40;;;;;;;43.33;22.00;;;;;;;;;;6221444;28;20046;-74
2022/12/08 05:03:42;;;;;;;41.40;21.27;;;;;;;;;;6223577;28;20046;-72
2022/12/08 05:06:44;;;;;;;44.25;22.40;;;;;;;;;;6224675;28;20041;-71
2022/12/08 05:09:47;;;;;;;39.65;20.95;;;;;;;;;;6221584;28;20101;-72
2022/12/08 05:12:49;;;;;;;39.85;21.75;;;;;;;;;;6219801;28;20349;-70
2022/12/08 05:15:51;;;;;;;42.83;22.20;;;;;;;;;;6220504;28;20061;-71
2022/12/08 05:18:52;;;;;;;39.05;21.33;;;;;;;;;;6215070;28;20058;-73
2022/12/08 05:21:54;;;;;;;42.42;21.80;;;;;;;;;;6219762;28;20322;-73
2022/12/08 05:24:57;;;;;;;40.47;20.95;;;;;;;;;;6216426;28;20060;-74
2022/12/08 05:27:59;;;;;;;40.72;19.67;;;;;;;;;;6218540;28;20120;-73
2022/12/08 05:31:00;;;;;;;36.70;21.15;;;;;;;;;;6227213;28;20427;-71
2022/12/08 05:34:02;;;;;;;35.42;21.00;;;;;;;;;;6220021;28;20261;-73
2022/12/08 05:37:04;;;;;;;39.33;21.48;;;;;;;;;;6225982;28;20325;-71
2022/12/08 05:40:08;;;;;;;36.08;21.35;;;;;;;;;;6223163;28;20052;-72
2022/12/08 05:43:10;;;;;;;35.17;20.45;;;;;;;;;;6222575;28;20069;-72
2022/12/08 05:46:12;;;;;;;32.60;20.17;;;;;;;;;;6224176;28;20131;-72
2022/12/08 05:49:14;;;;;;;40.75;20.92;;;;;;;;;;6224854;28;20060;-72
2022/12/08 05:52:16;;;;;;;39.63;20.90;;;;;;;;;;6227569;28;20069;-72
2022/12/08 05:55:19;;;;;;;38.08;19.65;;;;;;;;;;6229920;28;20157;-71
2022/12/08 05:58:22;;;;;;;36.72;20.55;;;;;;;;;;6226373;28;20057;-71
2022/12/08 06:01:26;;;;;;;39.90;21.27;;;;;;;;;;6223117;28;20104;-72
2022/12/08 06:04:27;;;;;;;37.45;19.88;;;;;;;;;;6221349;28;20263;-72
2022/12/08 06:07:29;;;;;;;35.05;20.10;;;;;;;;;;6217962;28;20076;-72
2022/12/08 06:10:32;;;;;;;35.92;19.95;;;;;;;;;;6225238;28;20046;-72
2022/12/08 06:13:34;;;;;;;38.42;21.52;;;;;;;;;;6222007;28;20112;-72
2022/12/08 06:16:36;;;;;;;40.88;21.58;;;;;;;;;;6223416;28;20053;-72
2022/12/08 06:19:38;;;;;;;35.45;20.13;;;;;;;;;;6223607;28;20057;-71
2022/12/08 06:22:39;;;;;;;37.92;21.27;;;;;;;;;;6224060;28;20330;-72
2022/12/08 06:25:42;;;;;;;36.25;20.25;;;;;;;;;;6223503;28;20241;-71
2022/12/08 06:28:44;;;;;;;35.47;19.70;;;;;;;;;;6223195;28;20309;-71
2022/12/08 06:31:46;;;;;;;36.03;21.13;;;;;;;;;;6226348;28;20054;-71
2022/12/08 06:34:48;;;;;;;34.95;20.60;;;;;;;;;;6222825;28;20053;-72
2022/12/08 06:37:50;;;;;;;37.42;20.58;;;;;;;;;;6223738;28;20338;-71
2022/12/08 06:40:55;;;;;;;34.55;19.50;;;;;;;;;;6224085;28;20096;-72
2022/12/08 06:43:57;;;;;;;34.40;19.55;;;;;;;;;;6222973;28;20045;-72
2022/12/08 06:46:58;;;;;;;38.63;21.10;;;;;;;;;;6226516;28;20058;-72
2022/12/08 06:50:00;;;;;;;34.63;19.63;;;;;;;;;;6224276;28;20042;-71
2022/12/08 06:53:02;;;;;;;33.97;19.63;;;;;;;;;;6224692;28;20061;-72
2022/12/08 06:56:06;;;;;;;35.20;19.52;;;;;;;;;;6222823;28;20054;-72
2022/12/08 06:59:07;;;;;;;33.95;17.77;;;;;;;;;;6222363;28;20049;-71
2022/12/08 07:02:09;;;;;;;34.08;19.08;;;;;;;;;;6221242;28;20054;-72
2022/12/08 07:05:11;;;;;;;37.38;19.40;;;;;;;;;;6224063;28;20053;-70
2022/12/08 07:08:13;;;;;;;38.70;20.02;;;;;;;;;;6224786;28;20112;-70
2022/12/08 07:11:16;;;;;;;37.10;20.33;;;;;;;;;;6222825;28;20109;-71
2022/12/08 07:14:19;;;;;;;34.97;18.85;;;;;;;;;;6223155;28;20225;-70
2022/12/08 07:17:20;;;;;;;37.78;19.52;;;;;;;;;;6222558;28;20057;-69
2022/12/08 07:20:22;;;;;;;34.75;18.33;;;;;;;;;;6221948;28;20081;-71
2022/12/08 07:23:24;;;;;;;36.67;18.55;;;;;;;;;;6217891;28;20342;-71
2022/12/08 07:26:27;;;;;;;37.10;19.17;;;;;;;;;;6223920;28;20042;-72
2022/12/08 07:29:28;;;;;;;38.40;19.33;;;;;;;;;;6220037;28;20058;-71
2022/12/08 07:32:30;;;;;;;38.55;19.77;;;;;;;;;;6223148;28;20108;-74
2022/12/08 07:35:32;;;;;;;38.22;19.98;;;;;;;;;;6214471;28;20061;-70
2022/12/08 07:41:52;;;;;;;36.45;20.23;;;;;;;;;;6243806;23;20121;-74
2022/12/08 07:44:54;;;;;;;37.85;19.40;;;;;;;;;;6220208;28;20052;-73
2022/12/08 07:47:55;;;;;;;41.95;20.35;;;;;;;;;;6221733;28;20050;-74
2022/12/08 07:51:00;;;;;;;41.90;20.42;;;;;;;;;;6217826;28;20057;-71
2022/12/08 07:54:02;;;;;;;42.78;21.98;;;;;;;;;;6223139;28;20064;-72
2022/12/08 07:57:05;;;;;;;37.08;20.42;;;;;;;;;;6222333;28;20058;-72
2022/12/08 08:00:08;;;;;;;42.50;22.92;;;;;;;;;;6223528;28;20041;-73
2022/12/08 08:03:10;;;;;;;37.65;21.48;;;;;;;;;;6222396;28;20057;-73
2022/12/08 08:06:12;;;;;;;43.30;22.10;;;;;;;;;;6219447;28;20068;-72
2022/12/08 08:09:13;;;;;;;41.53;21.20;;;;;;;;;;6219242;28;20151;-72
2022/12/08 08:12:16;;;;;;;42.22;21.95;;;;;;;;;;6219138;28;20266;-72
2022/12/08 08:15:20;;;;;;;43.05;21.85;;;;;;;;;;6219378;28;20053;-70
2022/12/08 08:18:21;;;;;;;45.75;21.85;;;;;;;;;;6223166;28;20061;-71
2022/12/08 08:21:23;;;;;;;47.72;23.10;;;;;;;;;;6220615;28;20229;-71
2022/12/08 08:24:25;;;;;;;45.28;22.67;;;;;;;;;;6212661;28;20104;-70
2022/12/08 08:27:28;;;;;;;42.40;21.50;;;;;;;;;;6214908;28;20049;-71
2022/12/08 08:30:29;;;;;;;47.40;24.50;;;;;;;;;;6223723;28;20065;-71
2022/12/08 08:33:31;;;;;;;47.72;24.85;;;;;;;;;;6221630;28;20054;-71
2022/12/08 08:36:32;;;;;;;44.83;23.70;;;;;;;;;;6218979;28;20053;-70
2022/12/08 08:39:34;;;;;;;41.50;22.92;;;;;;;;;;6224425;28;20218;-70
2022/12/08 08:42:37;;;;;;;40.53;22.13;;;;;;;;;;6243931;28;20049;-73
2022/12/08 08:45:39;;;;;;;41.97;22.35;;;;;;;;;;6245062;28;20046;-73
2022/12/08 08:48:41;;;;;;;43.00;22.80;;;;;;;;;;6244050;28;20041;-72
2022/12/08 08:51:42;;;;;;;46.83;22.95;;;;;;;;;;6244660;28;20053;-72
2022/12/08 08:54:44;;;;;;;38.33;21.10;;;;;;;;;;6241952;28;20045;-72
2022/12/08 08:57:47;;;;;;;45.15;22.98;;;;;;;;;;6241219;28;20313;-72
2022/12/08 09:00:49;;;;;;;46.92;24.65;;;;;;;;;;6243518;28;20246;-72
2022/12/08 09:03:50;;;;;;;42.80;23.13;;;;;;;;;;6245437;28;20054;-73
2022/12/08 09:06:52;;;;;;;43.45;23.85;;;;;;;;;;6248603;28;20064;-72
2022/12/08 09:09:54;;;;;;;43.75;23.60;;;;;;;;;;6249310;28;20256;-71
2022/12/08 09:12:57;;;;;;;45.05;23.38;;;;;;;;;;6249777;28;20065;-72
2022/12/08 09:16:00;;;;;;;46.90;24.45;;;;;;;;;;6249044;28;20109;-71
2022/12/08 09:19:02;;;;;;;42.80;23.52;;;;;;;;;;6248902;28;20057;-72
2022/12/08 09:22:04;;;;;;;50.13;24.30;;;;;;;;;;6246181;28;20061;-71
2022/12/08 09:25:06;;;;;;;50.25;24.42;;;;;;;;;;6249746;28;20072;-72
2022/12/08 09:28:09;;;;;;;52.58;24.27;;;;;;;;;;6247250;28;20054;-70
2022/12/08 09:31:11;;;;;;;49.70;23.55;;;;;;;;;;6248511;28;20053;-71
2022/12/08 09:34:13;;;;;;;48.60;23.38;;;;;;;;;;6248791;28;20057;-71
2022/12/08 09:37:15;;;;;;;46.63;22.92;;;;;;;;;;6251198;28;20057;-71
2022/12/08 09:40:19;;;;;;;44.58;23.17;;;;;;;;;;6245289;28;20054;-71
2022/12/08 09:43:26;;;;;;;;;;;;;;;;;;6252246;28;20045;-72
2022/12/08 09:46:30;;;;;;;44.42;23.23;;;;;;;;;;6246044;28;19925;-70
2022/12/08 09:49:38;;;;;;;44.70;22.55;;;;;;;;;;6245287;28;20237;-72
2022/12/08 09:52:43;;;;;;;50.47;24.35;;;;;;;;;;6247030;28;20391;-72
2022/12/08 09:55:49;;;;;;;50.70;23.95;;;;;;;;;;6245638;28;20139;-72
2022/12/08 09:58:55;;;;;;;48.10;24.27;;;;;;;;;;6247884;28;20127;-72
2022/12/08 10:01:57;;;;;;;46.65;25.63;;;;;;;;;;6248312;28;20060;-71
2022/12/08 10:04:59;;;;;;;51.40;25.85;;;;;;;;;;6249169;28;20049;-71
2022/12/08 10:08:07;;;;;;;48.65;25.63;;;;;;;;;;6250365;28;20049;-72
2022/12/08 10:11:14;;;;;;;42.72;22.67;;;;;;;;;;6249240;28;20045;-72
2022/12/08 10:14:25;;;;;;;40.63;21.38;;;;;;;;;;6246854;28;20284;-72
2022/12/08 10:17:29;;;;;;;36.53;20.42;;;;;;;;;;6246113;28;20076;-72
2022/12/08 10:20:37;;;;;;;39.67;21.02;;;;;;;;;;6246164;28;20068;-72
2022/12/08 10:23:39;;;;;;;36.30;21.40;;;;;;;;;;6248885;28;20285;-72
2022/12/08 10:26:41;;;;;;;37.45;20.75;;;;;;;;;;6251382;28;20053;-72
2022/12/08 10:29:44;;;;;;;34.08;19.65;;;;;;;;;;6244838;28;20144;-72
2022/12/08 10:32:48;;;;;;;37.10;19.88;;;;;;;;;;6248902;28;20041;-72
2022/12/08 10:35:51;;;;;;;35.83;20.60;;;;;;;;;;6247481;28;20329;-72
2022/12/08 10:38:52;;;;;;;33.40;20.25;;;;;;;;;;6249071;28;20049;-72
2022/12/08 10:42:00;;;;;;;40.25;20.73;;;;;;;;;;6241922;28;20049;-72
2022/12/08 10:45:17;;;;;;;35.78;20.63;;;;;;;;;;6248236;28;20064;-72
2022/12/08 10:48:21;;;;;;;35.80;20.20;;;;;;;;;;6249208;28;20210;-72
2022/12/08 10:51:25;;;;;;;35.08;20.58;;;;;;;;;;6246936;28;20398;-71
2022/12/08 10:54:30;;;;;;;39.75;21.60;;;;;;;;;;6247758;28;20178;-72
2022/12/08 10:57:32;;;;;;;35.25;21.67;;;;;;;;;;6247628;28;20064;-72
2022/12/08 11:00:38;;;;;;;33.88;20.58;;;;;;;;;;6245668;28;20120;-72
2022/12/08 11:03:45;;;;;;;34.75;20.52;;;;;;;;;;6246609;28;20053;-72
2022/12/08 11:06:47;;;;;;;36.17;19.45;;;;;;;;;;6246710;28;20057;-71
2022/12/08 11:09:53;;;;;;;37.15;20.85;;;;;;;;;;6247021;28;20058;-72
2022/12/08 11:12:56;;;;;;;41.25;21.10;;;;;;;;;;6245345;28;20122;-71
2022/12/08 11:15:59;;;;;;;39.13;20.95;;;;;;;;;;6245890;28;20045;-72
2022/12/08 11:19:05;;;;;;;33.42;20.58;;;;;;;;;;6245342;28;20137;-72
2022/12/08 11:22:22;;;;;;;38.22;21.02;;;;;;;;;;6244137;28;20045;-72
2022/12/08 11:25:24;;;;;;;30.25;20.25;;;;;;;;;;6243143;28;20053;-72
2022/12/08 11:28:26;;;;;;;33.10;20.45;;;;;;;;;;6245147;28;20054;-72
2022/12/08 11:31:31;;;;;;;40.65;22.48;;;;;;;;;;6243054;28;20049;-72
2022/12/08 11:34:36;;;;;;;36.92;19.95;;;;;;;;;;6248096;28;20237;-72
2022/12/08 11:37:39;;;;;;;36.45;20.88;;;;;;;;;;6247189;28;20061;-72
2022/12/08 11:40:43;;;;;;;32.03;19.93;;;;;;;;;;6244867;28;20066;-73
2022/12/08 11:43:50;;;;;;;34.15;21.20;;;;;;;;;;6243233;28;20348;-73
2022/12/08 11:46:57;;;;;;;38.50;24.23;;;;;;;;;;6245561;28;20049;-74
2022/12/08 11:50:03;;;;;;;38.17;23.05;;;;;;;;;;6243498;28;20084;-72
2022/12/08 11:53:05;;;;;;;39.55;23.27;;;;;;;;;;6246046;28;20144;-77
2022/12/08 11:56:13;;;;;;;37.75;23.67;;;;;;;;;;6243647;28;20297;-73
2022/12/08 11:59:19;;;;;;;37.75;23.23;;;;;;;;;;6244570;28;20251;-71
2022/12/08 12:02:25;;;;;;;43.40;24.58;;;;;;;;;;6244774;28;20222;-70
2022/12/08 12:05:31;;;;;;;41.78;24.13;;;;;;;;;;6245737;28;20283;-71
2022/12/08 12:08:43;;;;;;;39.78;23.33;;;;;;;;;;6234892;28;20111;-71
2022/12/08 12:12:15;;;;;;;38.20;23.73;;;;;;;;;;6243806;28;20096;-71
2022/12/08 12:15:31;;;;;;;37.70;24.67;;;;;;;;;;6247053;28;20049;-73
2022/12/08 12:18:39;;;;;;;36.78;24.20;;;;;;;;;;6245989;28;20368;-73
2022/12/08 12:21:43;;;;;;;36.60;23.67;;;;;;;;;;6244397;28;20206;-73
2022/12/08 12:24:47;;;;;;;36.58;23.08;;;;;;;;;;6242292;28;20053;-73
2022/12/08 12:27:49;;;;;;;40.00;24.50;;;;;;;;;;6244367;28;20037;-73
2022/12/08 12:30:55;;;;;;;38.20;24.35;;;;;;;;;;6245774;28;20107;-71
2022/12/08 12:34:11;;;;;;;36.53;24.50;;;;;;;;;;6247230;28;20064;-72
2022/12/08 12:37:15;;;;;;;36.60;23.73;;;;;;;;;;6244753;28;20336;-72
2022/12/08 12:40:18;;;;;;;35.55;23.65;;;;;;;;;;6242300;28;20345;-71
2022/12/08 12:43:31;;;;;;;39.00;24.20;;;;;;;;;;6245164;28;20072;-71
2022/12/08 12:46:55;;;;;;;39.63;23.73;;;;;;;;;;6244533;28;20084;-71
2022/12/08 12:50:16;;;;;;;37.30;22.48;;;;;;;;;;6245371;28;20229;-72
2022/12/08 12:53:49;;;;;;;35.85;22.15;;;;;;;;;;6243547;28;20045;-72
2022/12/08 12:56:53;;;;;;;36.17;22.52;;;;;;;;;;6241914;28;20288;-73
2022/12/08 13:00:07;;;;;;;35.25;22.35;;;;;;;;;;6244032;28;20352;-73
2022/12/08 13:03:14;;;;;;;33.83;21.80;;;;;;;;;;6247007;28;20225;-73
2022/12/08 13:06:23;;;;;;;33.65;20.85;;;;;;;;;;6243225;28;20272;-73
2022/12/08 13:09:30;;;;;;;31.02;19.85;;;;;;;;;;6247457;28;20046;-73
2022/12/08 13:12:32;;;;;;;30.98;20.67;;;;;;;;;;6245413;28;20415;-72
2022/12/08 13:15:35;;;;;;;34.58;19.52;;;;;;;;;;6243884;28;20053;-73
2022/12/08 13:18:40;;;;;;;28.23;18.40;;;;;;;;;;6241400;28;20072;-73
2022/12/08 13:21:43;;;;;;;30.80;19.65;;;;;;;;;;6241194;28;20046;-73
2022/12/08 13:24:45;;;;;;;26.92;19.02;;;;;;;;;;6245546;28;20053;-73
2022/12/08 13:27:52;;;;;;;27.98;18.45;;;;;;;;;;6242349;28;20057;-73
2022/12/08 13:30:57;;;;;;;30.55;19.25;;;;;;;;;;6248473;28;20384;-73
2022/12/08 13:33:58;;;;;;;29.67;18.73;;;;;;;;;;6245607;28;20085;-73
2022/12/08 13:37:12;;;;;;;27.40;17.88;;;;;;;;;;6239740;28;20069;-73
2022/12/08 13:40:16;;;;;;;28.55;19.13;;;;;;;;;;6244540;28;20111;-73
2022/12/08 13:43:22;;;;;;;30.15;19.00;;;;;;;;;;6244492;28;20159;-73
2022/12/08 13:46:32;;;;;;;28.92;20.60;;;;;;;;;;6243530;28;20041;-72
2022/12/08 13:49:36;;;;;;;27.00;18.75;;;;;;;;;;6244509;28;20347;-73
2022/12/08 13:52:46;;;;;;;25.90;18.58;;;;;;;;;;6246656;28;20060;-73
2022/12/08 13:55:50;;;;;;;27.85;18.67;;;;;;;;;;6246431;28;20045;-72
2022/12/08 13:58:51;;;;;;;30.55;20.83;;;;;;;;;;6247925;28;20056;-72
2022/12/08 14:01:53;;;;;;;29.05;18.95;;;;;;;;;;6246262;28;20124;-73
2022/12/08 14:04:55;;;;;;;30.60;19.23;;;;;;;;;;6246936;28;20110;-73
2022/12/08 14:07:58;;;;;;;29.00;19.30;;;;;;;;;;6247408;28;20339;-73
2022/12/08 14:11:04;;;;;;;30.65;20.17;;;;;;;;;;6247029;28;20057;-73
2022/12/08 14:14:07;;;;;;;28.42;20.15;;;;;;;;;;6246183;28;20124;-73
2022/12/08 14:17:12;;;;;;;31.30;21.03;;;;;;;;;;6247448;28;20069;-73
2022/12/08 14:20:20;;;;;;;30.38;20.77;;;;;;;;;;6247137;28;20328;-73
2022/12/08 14:23:23;;;;;;;32.92;20.38;;;;;;;;;;6249210;28;20045;-73
2022/12/08 14:26:25;;;;;;;31.40;20.58;;;;;;;;;;6248521;28;20108;-73
2022/12/08 14:29:42;;;;;;;33.85;21.85;;;;;;;;;;6247146;28;20060;-73
2022/12/08 14:32:46;;;;;;;32.20;22.45;;;;;;;;;;6247871;28;20049;-73
2022/12/08 14:35:53;;;;;;;34.35;21.48;;;;;;;;;;6245458;28;20248;-73
2022/12/08 14:38:57;;;;;;;38.50;22.88;;;;;;;;;;6248048;28;20065;-73
2022/12/08 14:42:00;;;;;;;35.45;22.27;;;;;;;;;;6244632;28;20053;-73
2022/12/08 14:45:06;;;;;;;37.33;22.90;;;;;;;;;;6245456;28;20108;-73
2022/12/08 14:48:21;;;;;;;31.35;20.98;;;;;;;;;;6245410;28;20065;-73
2022/12/08 14:51:28;;;;;;;39.03;23.35;;;;;;;;;;6249654;28;20065;-73
2022/12/08 14:54:31;;;;;;;34.85;22.33;;;;;;;;;;6246947;28;20052;-73
2022/12/08 14:57:35;;;;;;;37.28;22.88;;;;;;;;;;6245788;28;20127;-73
2022/12/08 15:00:36;;;;;;;33.45;22.27;;;;;;;;;;6245554;28;20057;-73
2022/12/08 15:03:38;;;;;;;32.65;21.65;;;;;;;;;;6243888;28;20214;-73
2022/12/08 15:06:47;;;;;;;34.45;22.17;;;;;;;;;;6244196;28;20132;-73
2022/12/08 15:10:07;;;;;;;36.63;22.50;;;;;;;;;;6244650;28;20045;-73
2022/12/08 15:13:22;;;;;;;33.83;21.40;;;;;;;;;;6246915;28;20124;-73
2022/12/08 15:16:24;;;;;;;;;;;;;;;;;;6242368;28;20042;-73
2022/12/08 15:19:28;;;;;;;36.97;22.92;;;;;;;;;;6246395;28;19960;-73
2022/12/08 15:22:30;;;;;;;35.95;22.13;;;;;;;;;;6248571;28;20053;-73
2022/12/08 15:25:34;;;;;;;33.63;21.25;;;;;;;;;;6245260;28;20769;-73
2022/12/08 15:28:35;;;;;;;37.25;23.15;;;;;;;;;;6247554;28;20285;-73
2022/12/08 15:31:37;;;;;;;35.22;20.83;;;;;;;;;;6246316;28;21052;-73
2022/12/08 15:34:39;;;;;;;34.80;21.48;;;;;;;;;;6245301;28;20053;-73
2022/12/08 15:37:41;;;;;;;35.30;22.58;;;;;;;;;;6242907;28;20053;-73
2022/12/08 15:40:44;;;;;;;36.58;21.58;;;;;;;;;;6240584;28;20049;-73
2022/12/08 15:43:45;;;;;;;34.50;21.98;;;;;;;;;;6241112;28;20257;-73
2022/12/08 15:46:48;;;;;;;34.22;21.65;;;;;;;;;;6245721;28;20107;-73
2022/12/08 15:49:51;;;;;;;35.88;21.80;;;;;;;;;;6242555;28;20049;-72
2022/12/08 15:52:53;;;;;;;36.75;23.15;;;;;;;;;;6244994;28;20222;-73
2022/12/08 15:55:56;;;;;;;31.42;21.23;;;;;;;;;;6243787;28;20087;-73
2022/12/08 15:58:57;;;;;;;31.88;20.08;;;;;;;;;;6244095;28;20057;-73
2022/12/08 16:01:59;;;;;;;32.20;21.25;;;;;;;;;;6243802;28;20077;-73
2022/12/08 16:05:01;;;;;;;33.30;20.40;;;;;;;;;;6247141;28;20052;-73
2022/12/08 16:08:03;;;;;;;34.10;21.42;;;;;;;;;;6239384;28;20218;-73
2022/12/08 16:14:26;;;;;;;39.10;22.83;;;;;;;;;;6243561;28;20045;-73
2022/12/08 16:17:28;;;;;;;35.60;22.08;;;;;;;;;;6244501;28;20359;-73
2022/12/08 16:20:30;;;;;;;36.00;22.70;;;;;;;;;;6247251;28;20159;-73
2022/12/08 16:23:31;;;;;;;68.85;39.28;;;;;;;;;;6240781;28;20058;-71
2022/12/08 16:26:34;;;;;;;116.57;56.50;;;;;;;;;;6243306;28;20091;-74
2022/12/08 16:29:36;;;;;;;105.78;53.22;;;;;;;;;;6244872;28;20053;-73
2022/12/08 16:32:38;;;;;;;65.20;37.42;;;;;;;;;;6245388;28;20111;-73
2022/12/08 16:35:40;;;;;;;34.83;23.38;;;;;;;;;;6240007;28;20050;-73
2022/12/08 16:38:42;;;;;;;35.22;22.17;;;;;;;;;;6241472;28;20068;-73
2022/12/08 16:45:06;;;;;;;33.10;21.92;;;;;;;;;;6242528;28;20069;-73
2022/12/08 16:48:13;;;;;;;36.13;21.73;;;;;;;;;;6238698;28;20066;-73
2022/12/08 16:51:16;;;;;;;34.67;22.80;;;;;;;;;;6239896;28;20045;-73
2022/12/08 16:54:17;;;;;;;34.47;22.15;;;;;;;;;;6239384;28;20053;-73
2022/12/08 16:57:20;;;;;;;36.28;23.15;;;;;;;;;;6237170;28;20323;-73
2022/12/08 17:00:24;;;;;;;35.00;22.40;;;;;;;;;;6242096;28;20057;-72
2022/12/08 17:03:25;;;;;;;37.10;23.40;;;;;;;;;;6242593;28;20052;-73
2022/12/08 17:06:27;;;;;;;33.72;22.60;;;;;;;;;;6239192;28;20046;-73
2022/12/08 17:09:30;;;;;;;39.75;22.75;;;;;;;;;;6239681;28;20049;-73
2022/12/08 17:12:35;;;;;;;36.60;23.83;;;;;;;;;;6244431;28;20053;-73
2022/12/08 17:15:36;;;;;;;;;;;;;;;;;;6242113;28;20057;-73
2022/12/08 17:18:38;;;;;;;33.08;22.95;;;;;;;;;;6240860;28;19957;-73
2022/12/08 17:21:40;;;;;;;37.42;24.67;;;;;;;;;;6243917;28;20046;-73
2022/12/08 17:24:41;;;;;;;37.35;24.10;;;;;;;;;;6244138;28;20061;-73
2022/12/08 17:27:44;;;;;;;35.60;23.27;;;;;;;;;;6249173;28;20042;-73
2022/12/08 17:30:46;;;;;;;35.25;23.13;;;;;;;;;;6250983;28;20290;-72
2022/12/08 17:33:48;;;;;;;34.88;22.58;;;;;;;;;;6248168;28;20060;-73
2022/12/08 17:36:49;;;;;;;35.28;24.65;;;;;;;;;;6246103;28;20050;-73
2022/12/08 17:39:51;;;;;;;37.03;24.50;;;;;;;;;;6241701;28;20049;-73
2022/12/08 17:42:54;;;;;;;35.00;23.45;;;;;;;;;;6244520;28;20289;-73
2022/12/08 17:45:56;;;;;;;38.53;25.33;;;;;;;;;;6246796;28;20053;-72
2022/12/08 17:48:58;;;;;;;34.58;24.40;;;;;;;;;;6244815;28;20053;-73
2022/12/08 17:52:01;;;;;;;37.50;24.42;;;;;;;;;;6249780;28;20045;-73
2022/12/08 17:55:03;;;;;;;40.53;24.50;;;;;;;;;;6249208;28;20046;-75
2022/12/08 17:58:06;;;;;;;36.38;23.55;;;;;;;;;;6241476;28;20057;-73
2022/12/08 18:01:08;;;;;;;35.93;24.10;;;;;;;;;;6247409;28;20057;-73
2022/12/08 18:04:11;;;;;;;33.75;23.08;;;;;;;;;;6247886;28;20049;-73
2022/12/08 18:07:12;;;;;;;34.67;23.38;;;;;;;;;;6249253;28;20049;-72
2022/12/08 18:10:15;;;;;;;34.90;22.38;;;;;;;;;;6246920;28;20045;-74